sensor_id;sensor_type;location;lat;lon;timestamp;P1;durP1;ratioP1;P2;durP2;ratioP2
42092;SDS011;28974;50.316;18.960;2024-03-23T00:56:16;130.40;;;53.38;;
42092;SDS011;28974;50.316;18.960;2024-03-23T01:08:17;99.20;;;45.97;;
42092;SDS011;28974;50.316;18.960;2024-03-23T01:20:18;97.60;;;43.35;;
42092;SDS011;28974;50.316;18.960;2024-03-23T01:32:18;111.13;;;46.97;;
42092;SDS011;28974;50.316;18.960;2024-03-23T01:44:19;103.75;;;44.80;;
42092;SDS011;28974;50.316;18.960;2024-03-23T01:56:20;101.70;;;42.42;;
42092;SDS011;28974;50.316;18.960;2024-03-23T02:08:22;83.38;;;36.70;;
42092;SDS011;28974;50.316;18.960;2024-03-23T02:20:23;93.47;;;40.85;;
42092;SDS011;28974;50.316;18.960;2024-03-23T02:32:24;105.65;;;42.85;;
42092;SDS011;28974;50.316;18.960;2024-03-23T02:44:24;114.93;;;44.47;;
42092;SDS011;28974;50.316;18.960;2024-03-23T02:56:25;92.03;;;42.20;;
42092;SDS011;28974;50.316;18.960;2024-03-23T03:08:25;100.65;;;45.30;;
42092;SDS011;28974;50.316;18.960;2024-03-23T03:20:26;90.55;;;39.97;;
42092;SDS011;28974;50.316;18.960;2024-03-23T03:32:28;76.80;;;35.35;;
42092;SDS011;28974;50.316;18.960;2024-03-23T03:44:32;84.85;;;36.35;;
42092;SDS011;28974;50.316;18.960;2024-03-23T03:56:33;75.57;;;35.27;;
42092;SDS011;28974;50.316;18.960;2024-03-23T04:08:34;86.53;;;39.40;;
42092;SDS011;28974;50.316;18.960;2024-03-23T04:20:59;87.78;;;35.00;;
42092;SDS011;28974;50.316;18.960;2024-03-23T04:32:59;71.55;;;32.60;;
42092;SDS011;28974;50.316;18.960;2024-03-23T04:45:01;198.00;;;59.03;;
42092;SDS011;28974;50.316;18.960;2024-03-23T04:57:02;122.28;;;51.88;;
42092;SDS011;28974;50.316;18.960;2024-03-23T05:09:02;73.50;;;32.58;;
42092;SDS011;28974;50.316;18.960;2024-03-23T05:21:12;63.45;;;27.65;;
42092;SDS011;28974;50.316;18.960;2024-03-23T05:33:12;53.53;;;25.65;;
42092;SDS011;28974;50.316;18.960;2024-03-23T05:45:13;47.30;;;22.23;;
42092;SDS011;28974;50.316;18.960;2024-03-23T05:57:13;46.80;;;23.42;;
42092;SDS011;28974;50.316;18.960;2024-03-23T06:09:14;59.83;;;28.80;;
42092;SDS011;28974;50.316;18.960;2024-03-23T06:21:15;48.90;;;22.70;;
42092;SDS011;28974;50.316;18.960;2024-03-23T06:33:17;39.15;;;21.05;;
42092;SDS011;28974;50.316;18.960;2024-03-23T06:45:18;45.08;;;22.33;;
42092;SDS011;28974;50.316;18.960;2024-03-23T06:57:23;42.65;;;19.65;;
42092;SDS011;28974;50.316;18.960;2024-03-23T07:09:24;44.95;;;22.17;;
42092;SDS011;28974;50.316;18.960;2024-03-23T07:21:26;44.63;;;22.88;;
42092;SDS011;28974;50.316;18.960;2024-03-23T07:33:27;53.20;;;22.80;;
42092;SDS011;28974;50.316;18.960;2024-03-23T07:45:28;41.90;;;15.32;;
42092;SDS011;28974;50.316;18.960;2024-03-23T07:57:33;39.00;;;17.33;;
42092;SDS011;28974;50.316;18.960;2024-03-23T08:09:33;38.07;;;18.27;;
42092;SDS011;28974;50.316;18.960;2024-03-23T08:21:34;31.87;;;16.33;;
42092;SDS011;28974;50.316;18.960;2024-03-23T08:33:35;21.98;;;10.07;;
42092;SDS011;28974;50.316;18.960;2024-03-23T08:45:40;32.30;;;12.93;;
42092;SDS011;28974;50.316;18.960;2024-03-23T08:57:41;22.02;;;10.68;;
42092;SDS011;28974;50.316;18.960;2024-03-23T09:09:42;28.98;;;13.13;;
42092;SDS011;28974;50.316;18.960;2024-03-23T09:21:44;21.15;;;11.45;;
42092;SDS011;28974;50.316;18.960;2024-03-23T09:33:45;24.15;;;9.77;;
42092;SDS011;28974;50.316;18.960;2024-03-23T09:45:46;24.00;;;10.57;;
42092;SDS011;28974;50.316;18.960;2024-03-23T09:57:47;27.17;;;10.80;;
42092;SDS011;28974;50.316;18.960;2024-03-23T10:09:52;19.45;;;10.68;;
42092;SDS011;28974;50.316;18.960;2024-03-23T10:21:52;26.88;;;10.25;;
42092;SDS011;28974;50.316;18.960;2024-03-23T10:33:53;24.13;;;7.95;;
42092;SDS011;28974;50.316;18.960;2024-03-23T10:45:56;18.65;;;8.18;;
42092;SDS011;28974;50.316;18.960;2024-03-23T10:57:57;26.88;;;8.43;;
42092;SDS011;28974;50.316;18.960;2024-03-23T11:09:59;14.68;;;7.32;;
42092;SDS011;28974;50.316;18.960;2024-03-23T11:22:00;14.07;;;5.33;;
42092;SDS011;28974;50.316;18.960;2024-03-23T11:34:05;9.73;;;4.68;;
42092;SDS011;28974;50.316;18.960;2024-03-23T11:46:05;9.77;;;4.53;;
42092;SDS011;28974;50.316;18.960;2024-03-23T11:58:06;10.73;;;4.22;;
42092;SDS011;28974;50.316;18.960;2024-03-23T12:10:07;11.70;;;3.40;;
42092;SDS011;28974;50.316;18.960;2024-03-23T12:22:08;10.50;;;4.50;;
42092;SDS011;28974;50.316;18.960;2024-03-23T12:34:09;8.70;;;3.90;;
42092;SDS011;28974;50.316;18.960;2024-03-23T12:46:10;10.13;;;4.57;;
42092;SDS011;28974;50.316;18.960;2024-03-23T12:58:11;47.15;;;19.23;;
42092;SDS011;28974;50.316;18.960;2024-03-23T13:10:15;11.23;;;4.72;;
42092;SDS011;28974;50.316;18.960;2024-03-23T13:22:21;4.78;;;2.28;;
42092;SDS011;28974;50.316;18.960;2024-03-23T13:34:22;5.32;;;2.53;;
42092;SDS011;28974;50.316;18.960;2024-03-23T13:46:22;12.63;;;3.30;;
42092;SDS011;28974;50.316;18.960;2024-03-23T13:58:23;12.95;;;3.03;;
42092;SDS011;28974;50.316;18.960;2024-03-23T14:10:26;4.72;;;2.88;;
42092;SDS011;28974;50.316;18.960;2024-03-23T14:22:27;13.57;;;4.93;;
42092;SDS011;28974;50.316;18.960;2024-03-23T14:34:28;16.00;;;5.05;;
42092;SDS011;28974;50.316;18.960;2024-03-23T14:46:28;14.02;;;5.65;;
42092;SDS011;28974;50.316;18.960;2024-03-23T14:58:29;13.15;;;5.00;;
42092;SDS011;28974;50.316;18.960;2024-03-23T15:10:30;19.27;;;9.30;;
42092;SDS011;28974;50.316;18.960;2024-03-23T15:22:32;34.70;;;13.30;;
42092;SDS011;28974;50.316;18.960;2024-03-23T15:34:34;32.72;;;9.93;;
42092;SDS011;28974;50.316;18.960;2024-03-23T15:46:35;26.77;;;10.90;;
42092;SDS011;28974;50.316;18.960;2024-03-23T15:58:39;39.10;;;17.02;;
42092;SDS011;28974;50.316;18.960;2024-03-23T16:10:40;40.75;;;17.15;;
42092;SDS011;28974;50.316;18.960;2024-03-23T16:22:40;18.20;;;10.90;;
42092;SDS011;28974;50.316;18.960;2024-03-23T16:34:41;28.55;;;13.77;;
42092;SDS011;28974;50.316;18.960;2024-03-23T16:46:41;18.48;;;8.52;;
42092;SDS011;28974;50.316;18.960;2024-03-23T16:58:43;11.25;;;6.90;;
42092;SDS011;28974;50.316;18.960;2024-03-23T17:10:46;17.58;;;10.00;;
42092;SDS011;28974;50.316;18.960;2024-03-23T17:22:52;23.10;;;13.40;;
42092;SDS011;28974;50.316;18.960;2024-03-23T17:34:53;15.43;;;9.23;;
42092;SDS011;28974;50.316;18.960;2024-03-23T17:46:53;17.00;;;9.15;;
42092;SDS011;28974;50.316;18.960;2024-03-23T17:58:54;29.58;;;13.38;;
42092;SDS011;28974;50.316;18.960;2024-03-23T18:10:55;21.25;;;11.18;;
42092;SDS011;28974;50.316;18.960;2024-03-23T18:23:00;17.83;;;8.90;;
42092;SDS011;28974;50.316;18.960;2024-03-23T18:35:02;9.38;;;6.63;;
42092;SDS011;28974;50.316;18.960;2024-03-23T18:47:03;12.20;;;6.65;;
42092;SDS011;28974;50.316;18.960;2024-03-23T18:59:04;11.68;;;6.55;;
42092;SDS011;28974;50.316;18.960;2024-03-23T19:11:05;13.43;;;8.40;;
42092;SDS011;28974;50.316;18.960;2024-03-23T19:23:06;24.55;;;12.75;;
42092;SDS011;28974;50.316;18.960;2024-03-23T19:47:14;9.93;;;4.40;;
42092;SDS011;28974;50.316;18.960;2024-03-23T19:59:14;18.30;;;7.60;;
42092;SDS011;28974;50.316;18.960;2024-03-23T20:11:15;20.23;;;6.70;;
42092;SDS011;28974;50.316;18.960;2024-03-23T20:23:16;13.93;;;5.13;;
42092;SDS011;28974;50.316;18.960;2024-03-23T20:35:17;9.38;;;5.00;;
42092;SDS011;28974;50.316;18.960;2024-03-23T20:47:17;18.90;;;8.40;;
42092;SDS011;28974;50.316;18.960;2024-03-23T20:59:26;10.77;;;5.25;;
42092;SDS011;28974;50.316;18.960;2024-03-23T21:11:27;13.38;;;6.07;;
42092;SDS011;28974;50.316;18.960;2024-03-23T21:23:27;22.95;;;8.27;;
42092;SDS011;28974;50.316;18.960;2024-03-23T21:35:35;22.85;;;6.93;;
42092;SDS011;28974;50.316;18.960;2024-03-23T21:47:36;15.83;;;5.23;;
42092;SDS011;28974;50.316;18.960;2024-03-23T21:59:37;24.55;;;8.63;;
42092;SDS011;28974;50.316;18.960;2024-03-23T22:11:38;22.88;;;7.45;;
42092;SDS011;28974;50.316;18.960;2024-03-23T22:23:40;17.98;;;6.68;;
42092;SDS011;28974;50.316;18.960;2024-03-23T22:35:44;18.00;;;8.38;;
42092;SDS011;28974;50.316;18.960;2024-03-23T22:47:44;16.55;;;6.20;;
42092;SDS011;28974;50.316;18.960;2024-03-23T22:59:49;25.33;;;8.90;;
42092;SDS011;28974;50.316;18.960;2024-03-23T23:11:49;20.63;;;8.55;;
42092;SDS011;28974;50.316;18.960;2024-03-23T23:23:51;35.55;;;10.90;;
42092;SDS011;28974;50.316;18.960;2024-03-23T23:35:53;21.23;;;9.27;;
42092;SDS011;28974;50.316;18.960;2024-03-23T23:47:59;22.95;;;9.50;;
42092;SDS011;28974;50.316;18.960;2024-03-23T23:59:59;27.80;;;8.43;;
